sensor_id;sensor_type;location;lat;lon;timestamp;temperature;humidity
84971;DHT22;75278;51.926;4.562;2024-02-15T00:00:53;12.3;100
84971;DHT22;75278;51.926;4.562;2024-02-15T00:02:56;12.3;100
84971;DHT22;75278;51.926;4.562;2024-02-15T00:04:53;12.3;100
84971;DHT22;75278;51.926;4.562;2024-02-15T00:06:53;12.3;100
84971;DHT22;75278;51.926;4.562;2024-02-15T00:08:53;12.3;100
84971;DHT22;75278;51.926;4.562;2024-02-15T00:10:53;12.3;100
84971;DHT22;75278;51.926;4.562;2024-02-15T00:12:53;12.3;100
84971;DHT22;75278;51.926;4.562;2024-02-15T00:14:58;12.3;100
84971;DHT22;75278;51.926;4.562;2024-02-15T00:17:31;12.3;100
84971;DHT22;75278;51.926;4.562;2024-02-15T00:18:53;12.3;100
84971;DHT22;75278;51.926;4.562;2024-02-15T00:20:53;12.3;100
84971;DHT22;75278;51.926;4.562;2024-02-15T00:22:53;12.3;100
84971;DHT22;75278;51.926;4.562;2024-02-15T00:24:53;12.3;100
84971;DHT22;75278;51.926;4.562;2024-02-15T00:26:53;12.3;100
84971;DHT22;75278;51.926;4.562;2024-02-15T00:28:53;12.4;100
84971;DHT22;75278;51.926;4.562;2024-02-15T00:30:53;12.4;100
84971;DHT22;75278;51.926;4.562;2024-02-15T00:32:53;12.4;100
84971;DHT22;75278;51.926;4.562;2024-02-15T00:34:53;12.4;100
84971;DHT22;75278;51.926;4.562;2024-02-15T00:36:53;12.4;100
84971;DHT22;75278;51.926;4.562;2024-02-15T00:38:53;12.4;100
84971;DHT22;75278;51.926;4.562;2024-02-15T00:40:53;12.4;100
84971;DHT22;75278;51.926;4.562;2024-02-15T00:42:53;12.4;100
84971;DHT22;75278;51.926;4.562;2024-02-15T00:44:53;12.4;100
84971;DHT22;75278;51.926;4.562;2024-02-15T00:46:53;12.4;100
84971;DHT22;75278;51.926;4.562;2024-02-15T00:48:53;12.4;100
84971;DHT22;75278;51.926;4.562;2024-02-15T00:50:53;12.4;100
84971;DHT22;75278;51.926;4.562;2024-02-15T00:59:35;12.2;100
84971;DHT22;75278;51.926;4.562;2024-02-15T01:01:09;12.2;100
84971;DHT22;75278;51.926;4.562;2024-02-15T01:02:55;12.2;100
84971;DHT22;75278;51.926;4.562;2024-02-15T01:04:53;12.3;100
84971;DHT22;75278;51.926;4.562;2024-02-15T01:08:53;12.3;100
84971;DHT22;75278;51.926;4.562;2024-02-15T01:10:53;12.2;100
84971;DHT22;75278;51.926;4.562;2024-02-15T01:12:53;12.2;100
84971;DHT22;75278;51.926;4.562;2024-02-15T01:14:53;12.2;100
84971;DHT22;75278;51.926;4.562;2024-02-15T01:16:53;12.2;100
84971;DHT22;75278;51.926;4.562;2024-02-15T01:18:53;12.1;100
84971;DHT22;75278;51.926;4.562;2024-02-15T01:20:56;12.1;100
84971;DHT22;75278;51.926;4.562;2024-02-15T01:22:53;12.0;100
84971;DHT22;75278;51.926;4.562;2024-02-15T01:24:56;11.9;100
84971;DHT22;75278;51.926;4.562;2024-02-15T01:26:53;11.9;100
84971;DHT22;75278;51.926;4.562;2024-02-15T01:28:53;11.9;100
84971;DHT22;75278;51.926;4.562;2024-02-15T01:30:53;12.0;100
84971;DHT22;75278;51.926;4.562;2024-02-15T01:32:53;12.0;100
84971;DHT22;75278;51.926;4.562;2024-02-15T01:34:53;12.0;100
84971;DHT22;75278;51.926;4.562;2024-02-15T01:36:53;12.0;100
84971;DHT22;75278;51.926;4.562;2024-02-15T01:38:53;12.0;100
84971;DHT22;75278;51.926;4.562;2024-02-15T01:40:53;12.0;100
84971;DHT22;75278;51.926;4.562;2024-02-15T01:42:53;11.9;100
84971;DHT22;75278;51.926;4.562;2024-02-15T01:44:53;11.9;100
84971;DHT22;75278;51.926;4.562;2024-02-15T01:46:53;11.9;100
84971;DHT22;75278;51.926;4.562;2024-02-15T01:48:53;11.9;100
84971;DHT22;75278;51.926;4.562;2024-02-15T01:50:53;11.8;100
84971;DHT22;75278;51.926;4.562;2024-02-15T01:52:54;11.8;100
84971;DHT22;75278;51.926;4.562;2024-02-15T01:54:53;11.8;100
84971;DHT22;75278;51.926;4.562;2024-02-15T01:56:57;11.9;100
84971;DHT22;75278;51.926;4.562;2024-02-15T01:58:53;11.9;100
84971;DHT22;75278;51.926;4.562;2024-02-15T02:00:56;12.0;100
84971;DHT22;75278;51.926;4.562;2024-02-15T02:02:53;12.0;100
84971;DHT22;75278;51.926;4.562;2024-02-15T02:04:53;12.0;100
84971;DHT22;75278;51.926;4.562;2024-02-15T02:06:53;12.0;100
84971;DHT22;75278;51.926;4.562;2024-02-15T02:08:53;12.1;100
84971;DHT22;75278;51.926;4.562;2024-02-15T02:10:53;12.1;100
84971;DHT22;75278;51.926;4.562;2024-02-15T02:12:53;12.1;100
84971;DHT22;75278;51.926;4.562;2024-02-15T02:14:53;12.1;100
84971;DHT22;75278;51.926;4.562;2024-02-15T02:16:53;12.1;100
84971;DHT22;75278;51.926;4.562;2024-02-15T02:18:54;12.1;100
84971;DHT22;75278;51.926;4.562;2024-02-15T02:20:53;12.1;100
84971;DHT22;75278;51.926;4.562;2024-02-15T02:22:54;12.1;100
84971;DHT22;75278;51.926;4.562;2024-02-15T02:24:58;12.2;100
84971;DHT22;75278;51.926;4.562;2024-02-15T02:26:53;12.1;100
84971;DHT22;75278;51.926;4.562;2024-02-15T02:28:53;12.2;100
84971;DHT22;75278;51.926;4.562;2024-02-15T02:30:53;12.2;100
84971;DHT22;75278;51.926;4.562;2024-02-15T02:32:53;12.2;100
84971;DHT22;75278;51.926;4.562;2024-02-15T02:34:53;12.2;100
84971;DHT22;75278;51.926;4.562;2024-02-15T02:36:53;12.2;100
84971;DHT22;75278;51.926;4.562;2024-02-15T02:38:53;12.2;100
84971;DHT22;75278;51.926;4.562;2024-02-15T02:40:53;12.2;100
84971;DHT22;75278;51.926;4.562;2024-02-15T02:42:54;12.2;100
84971;DHT22;75278;51.926;4.562;2024-02-15T02:44:53;12.2;100
84971;DHT22;75278;51.926;4.562;2024-02-15T02:46:53;12.1;100
84971;DHT22;75278;51.926;4.562;2024-02-15T02:48:53;12.1;100
84971;DHT22;75278;51.926;4.562;2024-02-15T02:50:53;12.1;100
84971;DHT22;75278;51.926;4.562;2024-02-15T02:52:53;12.2;100
84971;DHT22;75278;51.926;4.562;2024-02-15T02:54:53;12.2;100
84971;DHT22;75278;51.926;4.562;2024-02-15T02:56:53;12.2;100
84971;DHT22;75278;51.926;4.562;2024-02-15T02:58:53;12.3;100
84971;DHT22;75278;51.926;4.562;2024-02-15T03:00:53;12.3;100
84971;DHT22;75278;51.926;4.562;2024-02-15T03:02:56;12.3;100
84971;DHT22;75278;51.926;4.562;2024-02-15T03:04:53;12.4;100
84971;DHT22;75278;51.926;4.562;2024-02-15T03:06:53;12.4;100
84971;DHT22;75278;51.926;4.562;2024-02-15T03:08:53;12.4;100
84971;DHT22;75278;51.926;4.562;2024-02-15T03:10:56;12.4;100
84971;DHT22;75278;51.926;4.562;2024-02-15T03:12:53;12.4;100
84971;DHT22;75278;51.926;4.562;2024-02-15T03:14:53;12.4;100
84971;DHT22;75278;51.926;4.562;2024-02-15T03:16:56;12.4;100
84971;DHT22;75278;51.926;4.562;2024-02-15T03:18:53;12.3;100
84971;DHT22;75278;51.926;4.562;2024-02-15T03:20:53;12.3;100
84971;DHT22;75278;51.926;4.562;2024-02-15T03:22:54;12.4;100
84971;DHT22;75278;51.926;4.562;2024-02-15T03:24:53;12.3;100
84971;DHT22;75278;51.926;4.562;2024-02-15T03:26:53;12.3;100
84971;DHT22;75278;51.926;4.562;2024-02-15T03:28:54;12.3;100
84971;DHT22;75278;51.926;4.562;2024-02-15T03:30:53;12.3;100
84971;DHT22;75278;51.926;4.562;2024-02-15T03:32:53;12.3;100
84971;DHT22;75278;51.926;4.562;2024-02-15T03:34:53;12.3;100
84971;DHT22;75278;51.926;4.562;2024-02-15T03:36:53;12.3;100
84971;DHT22;75278;51.926;4.562;2024-02-15T03:38:53;12.3;100
84971;DHT22;75278;51.926;4.562;2024-02-15T03:40:53;12.3;100
84971;DHT22;75278;51.926;4.562;2024-02-15T03:42:53;12.3;100
84971;DHT22;75278;51.926;4.562;2024-02-15T03:44:53;12.3;100
84971;DHT22;75278;51.926;4.562;2024-02-15T03:46:53;12.3;100
84971;DHT22;75278;51.926;4.562;2024-02-15T03:48:54;12.3;100
84971;DHT22;75278;51.926;4.562;2024-02-15T03:50:53;12.3;100
84971;DHT22;75278;51.926;4.562;2024-02-15T03:52:53;12.3;100
84971;DHT22;75278;51.926;4.562;2024-02-15T03:54:53;12.3;100
84971;DHT22;75278;51.926;4.562;2024-02-15T03:56:53;12.3;100
84971;DHT22;75278;51.926;4.562;2024-02-15T03:58:53;12.3;100
84971;DHT22;75278;51.926;4.562;2024-02-15T04:00:53;12.3;100
84971;DHT22;75278;51.926;4.562;2024-02-15T04:02:53;12.3;100
84971;DHT22;75278;51.926;4.562;2024-02-15T04:04:53;12.3;100
84971;DHT22;75278;51.926;4.562;2024-02-15T04:06:53;12.3;100
84971;DHT22;75278;51.926;4.562;2024-02-15T04:08:53;12.3;100
84971;DHT22;75278;51.926;4.562;2024-02-15T04:10:53;12.3;100
84971;DHT22;75278;51.926;4.562;2024-02-15T04:12:53;12.3;100
84971;DHT22;75278;51.926;4.562;2024-02-15T04:14:53;12.3;100
84971;DHT22;75278;51.926;4.562;2024-02-15T04:16:53;12.3;100
84971;DHT22;75278;51.926;4.562;2024-02-15T04:18:53;12.3;100
84971;DHT22;75278;51.926;4.562;2024-02-15T04:20:53;12.3;100
84971;DHT22;75278;51.926;4.562;2024-02-15T04:22:53;12.3;100
84971;DHT22;75278;51.926;4.562;2024-02-15T04:24:53;12.3;100
84971;DHT22;75278;51.926;4.562;2024-02-15T04:26:53;12.3;100
84971;DHT22;75278;51.926;4.562;2024-02-15T04:28:53;12.4;100
84971;DHT22;75278;51.926;4.562;2024-02-15T04:30:53;12.4;100
84971;DHT22;75278;51.926;4.562;2024-02-15T04:32:53;12.4;100
84971;DHT22;75278;51.926;4.562;2024-02-15T04:34:53;12.4;100
84971;DHT22;75278;51.926;4.562;2024-02-15T04:36:53;12.4;100
84971;DHT22;75278;51.926;4.562;2024-02-15T04:38:53;12.4;100
84971;DHT22;75278;51.926;4.562;2024-02-15T04:40:56;12.4;100
84971;DHT22;75278;51.926;4.562;2024-02-15T04:42:53;12.4;100
84971;DHT22;75278;51.926;4.562;2024-02-15T04:44:53;12.4;100
84971;DHT22;75278;51.926;4.562;2024-02-15T04:46:53;12.4;100
84971;DHT22;75278;51.926;4.562;2024-02-15T04:48:53;12.4;100
84971;DHT22;75278;51.926;4.562;2024-02-15T04:50:53;12.4;100
84971;DHT22;75278;51.926;4.562;2024-02-15T04:52:53;12.4;100
84971;DHT22;75278;51.926;4.562;2024-02-15T04:54:54;12.4;100
84971;DHT22;75278;51.926;4.562;2024-02-15T04:56:53;12.4;100
84971;DHT22;75278;51.926;4.562;2024-02-15T04:58:53;12.4;100
84971;DHT22;75278;51.926;4.562;2024-02-15T05:00:57;12.4;100
84971;DHT22;75278;51.926;4.562;2024-02-15T05:02:53;12.3;100
84971;DHT22;75278;51.926;4.562;2024-02-15T05:04:56;12.4;100
84971;DHT22;75278;51.926;4.562;2024-02-15T05:06:53;12.3;100
84971;DHT22;75278;51.926;4.562;2024-02-15T05:08:53;12.3;100
84971;DHT22;75278;51.926;4.562;2024-02-15T05:10:53;12.3;100
84971;DHT22;75278;51.926;4.562;2024-02-15T05:12:53;12.4;100
84971;DHT22;75278;51.926;4.562;2024-02-15T05:14:53;12.4;100
84971;DHT22;75278;51.926;4.562;2024-02-15T05:16:53;12.4;100
84971;DHT22;75278;51.926;4.562;2024-02-15T05:18:53;12.4;100
84971;DHT22;75278;51.926;4.562;2024-02-15T05:20:53;12.4;100
84971;DHT22;75278;51.926;4.562;2024-02-15T05:22:53;12.4;100
84971;DHT22;75278;51.926;4.562;2024-02-15T05:24:54;12.4;100
84971;DHT22;75278;51.926;4.562;2024-02-15T05:26:53;12.4;100
84971;DHT22;75278;51.926;4.562;2024-02-15T05:28:53;12.4;100
84971;DHT22;75278;51.926;4.562;2024-02-15T05:32:53;12.4;100
84971;DHT22;75278;51.926;4.562;2024-02-15T05:34:53;12.4;100
84971;DHT22;75278;51.926;4.562;2024-02-15T05:36:53;12.4;100
84971;DHT22;75278;51.926;4.562;2024-02-15T05:38:54;12.4;100
84971;DHT22;75278;51.926;4.562;2024-02-15T05:40:53;12.4;100
84971;DHT22;75278;51.926;4.562;2024-02-15T05:42:55;12.4;100
84971;DHT22;75278;51.926;4.562;2024-02-15T05:44:53;12.4;100
84971;DHT22;75278;51.926;4.562;2024-02-15T05:46:53;12.4;100
84971;DHT22;75278;51.926;4.562;2024-02-15T05:48:53;12.4;100
84971;DHT22;75278;51.926;4.562;2024-02-15T05:50:54;12.4;100
84971;DHT22;75278;51.926;4.562;2024-02-15T05:52:53;12.4;100
84971;DHT22;75278;51.926;4.562;2024-02-15T05:54:56;12.4;100
84971;DHT22;75278;51.926;4.562;2024-02-15T05:56:53;12.5;100
84971;DHT22;75278;51.926;4.562;2024-02-15T05:58:53;12.4;100
84971;DHT22;75278;51.926;4.562;2024-02-15T06:00:53;12.4;100
84971;DHT22;75278;51.926;4.562;2024-02-15T06:02:53;12.4;100
84971;DHT22;75278;51.926;4.562;2024-02-15T06:04:53;12.4;100
84971;DHT22;75278;51.926;4.562;2024-02-15T06:06:53;12.4;100
84971;DHT22;75278;51.926;4.562;2024-02-15T06:08:53;12.4;100
84971;DHT22;75278;51.926;4.562;2024-02-15T06:10:53;12.3;100
84971;DHT22;75278;51.926;4.562;2024-02-15T06:12:53;12.3;100
84971;DHT22;75278;51.926;4.562;2024-02-15T06:14:53;12.2;100
84971;DHT22;75278;51.926;4.562;2024-02-15T06:16:53;12.2;100
84971;DHT22;75278;51.926;4.562;2024-02-15T06:18:53;12.3;100
84971;DHT22;75278;51.926;4.562;2024-02-15T06:20:53;12.3;100
84971;DHT22;75278;51.926;4.562;2024-02-15T06:22:53;12.3;100
84971;DHT22;75278;51.926;4.562;2024-02-15T06:24:53;12.3;100
84971;DHT22;75278;51.926;4.562;2024-02-15T06:26:53;12.3;100
84971;DHT22;75278;51.926;4.562;2024-02-15T06:28:53;12.3;100
84971;DHT22;75278;51.926;4.562;2024-02-15T06:30:56;12.3;100
84971;DHT22;75278;51.926;4.562;2024-02-15T06:32:53;12.3;100
84971;DHT22;75278;51.926;4.562;2024-02-15T06:34:53;12.3;100
84971;DHT22;75278;51.926;4.562;2024-02-15T06:36:54;12.3;100
84971;DHT22;75278;51.926;4.562;2024-02-15T06:38:53;12.3;100
84971;DHT22;75278;51.926;4.562;2024-02-15T06:40:53;12.3;100
84971;DHT22;75278;51.926;4.562;2024-02-15T06:42:54;12.3;100
84971;DHT22;75278;51.926;4.562;2024-02-15T06:44:53;12.3;100
84971;DHT22;75278;51.926;4.562;2024-02-15T06:46:53;12.3;100
84971;DHT22;75278;51.926;4.562;2024-02-15T06:48:53;12.3;100
84971;DHT22;75278;51.926;4.562;2024-02-15T06:50:54;12.3;100
84971;DHT22;75278;51.926;4.562;2024-02-15T06:52:54;12.3;100
84971;DHT22;75278;51.926;4.562;2024-02-15T06:54:57;12.3;100
84971;DHT22;75278;51.926;4.562;2024-02-15T06:56:54;12.3;100
84971;DHT22;75278;51.926;4.562;2024-02-15T06:58:57;12.3;100
84971;DHT22;75278;51.926;4.562;2024-02-15T07:00:54;12.3;100
84971;DHT22;75278;51.926;4.562;2024-02-15T07:02:57;12.3;100
84971;DHT22;75278;51.926;4.562;2024-02-15T07:04:54;12.4;100
84971;DHT22;75278;51.926;4.562;2024-02-15T07:06:53;12.3;100
84971;DHT22;75278;51.926;4.562;2024-02-15T07:08:56;12.4;100
84971;DHT22;75278;51.926;4.562;2024-02-15T07:10:53;12.4;100
84971;DHT22;75278;51.926;4.562;2024-02-15T07:12:53;12.4;100
84971;DHT22;75278;51.926;4.562;2024-02-15T07:14:53;12.4;100
84971;DHT22;75278;51.926;4.562;2024-02-15T07:16:53;12.3;100
84971;DHT22;75278;51.926;4.562;2024-02-15T07:18:53;12.4;100
84971;DHT22;75278;51.926;4.562;2024-02-15T07:20:53;12.4;100
84971;DHT22;75278;51.926;4.562;2024-02-15T07:22:54;12.4;100
84971;DHT22;75278;51.926;4.562;2024-02-15T07:24:54;12.4;100
84971;DHT22;75278;51.926;4.562;2024-02-15T07:26:54;12.4;100
84971;DHT22;75278;51.926;4.562;2024-02-15T07:28:54;12.4;100
84971;DHT22;75278;51.926;4.562;2024-02-15T07:30:54;12.4;100
84971;DHT22;75278;51.926;4.562;2024-02-15T07:32:53;12.4;100
84971;DHT22;75278;51.926;4.562;2024-02-15T07:34:54;12.4;100
84971;DHT22;75278;51.926;4.562;2024-02-15T07:36:57;12.4;100
84971;DHT22;75278;51.926;4.562;2024-02-15T07:38:54;12.4;100
84971;DHT22;75278;51.926;4.562;2024-02-15T07:40:54;12.4;100
84971;DHT22;75278;51.926;4.562;2024-02-15T07:42:54;12.4;100
84971;DHT22;75278;51.926;4.562;2024-02-15T07:44:54;12.4;100
84971;DHT22;75278;51.926;4.562;2024-02-15T07:46:53;12.4;100
84971;DHT22;75278;51.926;4.562;2024-02-15T07:48:53;12.4;100
84971;DHT22;75278;51.926;4.562;2024-02-15T07:50:54;12.4;100
84971;DHT22;75278;51.926;4.562;2024-02-15T07:52:56;12.4;100
84971;DHT22;75278;51.926;4.562;2024-02-15T07:56:54;12.4;100
84971;DHT22;75278;51.926;4.562;2024-02-15T07:58:54;12.4;100
84971;DHT22;75278;51.926;4.562;2024-02-15T08:00:54;12.4;100
84971;DHT22;75278;51.926;4.562;2024-02-15T08:03:01;12.4;100
84971;DHT22;75278;51.926;4.562;2024-02-15T08:04:54;12.4;100
84971;DHT22;75278;51.926;4.562;2024-02-15T08:07:17;12.4;100
84971;DHT22;75278;51.926;4.562;2024-02-15T08:09:23;12.4;100
84971;DHT22;75278;51.926;4.562;2024-02-15T08:11:18;12.4;100
84971;DHT22;75278;51.926;4.562;2024-02-15T08:13:19;12.5;100
84971;DHT22;75278;51.926;4.562;2024-02-15T08:15:18;12.5;100
84971;DHT22;75278;51.926;4.562;2024-02-15T08:17:17;12.5;100
84971;DHT22;75278;51.926;4.562;2024-02-15T08:19:17;12.5;100
84971;DHT22;75278;51.926;4.562;2024-02-15T08:21:24;12.4;100
84971;DHT22;75278;51.926;4.562;2024-02-15T08:23:17;12.4;100
84971;DHT22;75278;51.926;4.562;2024-02-15T08:25:17;12.5;100
84971;DHT22;75278;51.926;4.562;2024-02-15T08:27:17;12.5;100
84971;DHT22;75278;51.926;4.562;2024-02-15T08:29:17;12.5;100
84971;DHT22;75278;51.926;4.562;2024-02-15T08:31:17;12.5;100
84971;DHT22;75278;51.926;4.562;2024-02-15T08:33:17;12.5;100
84971;DHT22;75278;51.926;4.562;2024-02-15T08:35:20;12.5;100
84971;DHT22;75278;51.926;4.562;2024-02-15T08:37:17;12.6;100
84971;DHT22;75278;51.926;4.562;2024-02-15T08:39:17;12.6;100
84971;DHT22;75278;51.926;4.562;2024-02-15T08:41:17;12.5;100
84971;DHT22;75278;51.926;4.562;2024-02-15T08:43:20;12.5;100
84971;DHT22;75278;51.926;4.562;2024-02-15T08:45:17;12.6;100
84971;DHT22;75278;51.926;4.562;2024-02-15T08:47:18;12.6;100
84971;DHT22;75278;51.926;4.562;2024-02-15T08:49:17;12.6;100
84971;DHT22;75278;51.926;4.562;2024-02-15T08:51:17;12.6;100
84971;DHT22;75278;51.926;4.562;2024-02-15T08:53:17;12.6;100
84971;DHT22;75278;51.926;4.562;2024-02-15T08:55:17;12.6;100
84971;DHT22;75278;51.926;4.562;2024-02-15T08:57:18;12.6;100
84971;DHT22;75278;51.926;4.562;2024-02-15T08:59:17;12.7;100
84971;DHT22;75278;51.926;4.562;2024-02-15T09:01:17;12.7;100
84971;DHT22;75278;51.926;4.562;2024-02-15T09:03:17;12.7;100
84971;DHT22;75278;51.926;4.562;2024-02-15T09:05:20;12.7;100
84971;DHT22;75278;51.926;4.562;2024-02-15T09:07:17;12.7;100
84971;DHT22;75278;51.926;4.562;2024-02-15T09:09:17;12.7;100
84971;DHT22;75278;51.926;4.562;2024-02-15T09:11:17;12.7;100
84971;DHT22;75278;51.926;4.562;2024-02-15T09:13:17;12.7;100
84971;DHT22;75278;51.926;4.562;2024-02-15T09:15:17;12.7;100
84971;DHT22;75278;51.926;4.562;2024-02-15T09:17:17;12.7;100
84971;DHT22;75278;51.926;4.562;2024-02-15T09:19:17;12.8;100
84971;DHT22;75278;51.926;4.562;2024-02-15T09:21:18;12.7;100
84971;DHT22;75278;51.926;4.562;2024-02-15T09:23:19;12.8;100
84971;DHT22;75278;51.926;4.562;2024-02-15T09:25:18;12.8;100
84971;DHT22;75278;51.926;4.562;2024-02-15T09:27:17;12.8;100
84971;DHT22;75278;51.926;4.562;2024-02-15T09:29:20;12.8;100
84971;DHT22;75278;51.926;4.562;2024-02-15T09:31:17;12.9;100
84971;DHT22;75278;51.926;4.562;2024-02-15T09:33:18;13.0;100
84971;DHT22;75278;51.926;4.562;2024-02-15T09:35:17;13.1;100
84971;DHT22;75278;51.926;4.562;2024-02-15T09:36:10;13.1;100
84971;DHT22;75278;51.926;4.562;2024-02-15T09:37:48;13.1;100
84971;DHT22;75278;51.926;4.562;2024-02-15T09:39:47;13.2;100
84971;DHT22;75278;51.926;4.562;2024-02-15T09:41:47;13.3;100
84971;DHT22;75278;51.926;4.562;2024-02-15T09:43:49;13.3;100
84971;DHT22;75278;51.926;4.562;2024-02-15T09:45:50;13.3;100
84971;DHT22;75278;51.926;4.562;2024-02-15T09:47:47;13.4;100
84971;DHT22;75278;51.926;4.562;2024-02-15T09:49:48;13.4;100
84971;DHT22;75278;51.926;4.562;2024-02-15T09:51:48;13.4;100
84971;DHT22;75278;51.926;4.562;2024-02-15T09:53:47;13.4;100
84971;DHT22;75278;51.926;4.562;2024-02-15T09:55:47;13.5;100
84971;DHT22;75278;51.926;4.562;2024-02-15T09:57:47;13.5;100
84971;DHT22;75278;51.926;4.562;2024-02-15T09:59:47;13.5;100
84971;DHT22;75278;51.926;4.562;2024-02-15T10:01:47;13.5;100
84971;DHT22;75278;51.926;4.562;2024-02-15T10:03:48;13.6;100
84971;DHT22;75278;51.926;4.562;2024-02-15T10:05:48;13.7;100
84971;DHT22;75278;51.926;4.562;2024-02-15T10:07:47;13.8;100
84971;DHT22;75278;51.926;4.562;2024-02-15T10:09:47;13.9;100
84971;DHT22;75278;51.926;4.562;2024-02-15T10:11:52;13.9;100
84971;DHT22;75278;51.926;4.562;2024-02-15T10:13:47;13.9;100
84971;DHT22;75278;51.926;4.562;2024-02-15T10:15:47;13.9;100
84971;DHT22;75278;51.926;4.562;2024-02-15T10:17:53;13.8;100
84971;DHT22;75278;51.926;4.562;2024-02-15T10:21:47;13.8;100
84971;DHT22;75278;51.926;4.562;2024-02-15T10:23:47;13.7;100
84971;DHT22;75278;51.926;4.562;2024-02-15T10:25:47;13.7;100
84971;DHT22;75278;51.926;4.562;2024-02-15T10:27:47;13.8;100
84971;DHT22;75278;51.926;4.562;2024-02-15T10:29:47;13.9;100
84971;DHT22;75278;51.926;4.562;2024-02-15T10:31:52;14.0;100
84971;DHT22;75278;51.926;4.562;2024-02-15T10:33:47;14.2;100
84971;DHT22;75278;51.926;4.562;2024-02-15T10:35:48;14.3;100
84971;DHT22;75278;51.926;4.562;2024-02-15T10:37:48;14.4;100
84971;DHT22;75278;51.926;4.562;2024-02-15T10:39:49;14.4;100
84971;DHT22;75278;51.926;4.562;2024-02-15T10:41:48;14.4;99
84971;DHT22;75278;51.926;4.562;2024-02-15T10:43:47;14.4;99
84971;DHT22;75278;51.926;4.562;2024-02-15T10:45:47;14.4;100
84971;DHT22;75278;51.926;4.562;2024-02-15T10:47:47;14.5;100
84971;DHT22;75278;51.926;4.562;2024-02-15T10:49:48;14.6;99
84971;DHT22;75278;51.926;4.562;2024-02-15T10:51:49;14.5;98
84971;DHT22;75278;51.926;4.562;2024-02-15T10:53:48;14.5;98
84971;DHT22;75278;51.926;4.562;2024-02-15T10:55:53;14.4;99
84971;DHT22;75278;51.926;4.562;2024-02-15T10:57:47;14.5;99
84971;DHT22;75278;51.926;4.562;2024-02-15T10:59:51;14.5;99
84971;DHT22;75278;51.926;4.562;2024-02-15T11:01:49;14.7;100
84971;DHT22;75278;51.926;4.562;2024-02-15T11:03:48;14.8;99
84971;DHT22;75278;51.926;4.562;2024-02-15T11:05:47;14.9;99
84971;DHT22;75278;51.926;4.562;2024-02-15T11:07:50;14.9;99
84971;DHT22;75278;51.926;4.562;2024-02-15T11:09:47;14.9;98
84971;DHT22;75278;51.926;4.562;2024-02-15T11:11:47;14.9;97
84971;DHT22;75278;51.926;4.562;2024-02-15T11:13:54;14.9;97
84971;DHT22;75278;51.926;4.562;2024-02-15T11:15:50;14.9;98
84971;DHT22;75278;51.926;4.562;2024-02-15T11:17:48;14.9;97
84971;DHT22;75278;51.926;4.562;2024-02-15T11:19:50;14.9;97
84971;DHT22;75278;51.926;4.562;2024-02-15T11:21:52;14.9;98
84971;DHT22;75278;51.926;4.562;2024-02-15T11:23:50;15.0;98
84971;DHT22;75278;51.926;4.562;2024-02-15T11:25:47;15.1;99
84971;DHT22;75278;51.926;4.562;2024-02-15T11:27:50;15.1;99
84971;DHT22;75278;51.926;4.562;2024-02-15T11:29:48;15.2;99
84971;DHT22;75278;51.926;4.562;2024-02-15T11:31:53;15.2;97
84971;DHT22;75278;51.926;4.562;2024-02-15T11:33:47;15.2;96
84971;DHT22;75278;51.926;4.562;2024-02-15T11:36:03;15.2;96
84971;DHT22;75278;51.926;4.562;2024-02-15T11:37:50;15.2;96
84971;DHT22;75278;51.926;4.562;2024-02-15T11:39:47;15.2;97
84971;DHT22;75278;51.926;4.562;2024-02-15T11:43:48;15.4;97
84971;DHT22;75278;51.926;4.562;2024-02-15T11:45:47;15.4;95
84971;DHT22;75278;51.926;4.562;2024-02-15T11:47:48;15.3;94
84971;DHT22;75278;51.926;4.562;2024-02-15T11:49:47;15.4;95
84971;DHT22;75278;51.926;4.562;2024-02-15T11:51:48;15.5;95
84971;DHT22;75278;51.926;4.562;2024-02-15T11:53:57;15.5;94
84971;DHT22;75278;51.926;4.562;2024-02-15T11:55:48;15.6;95
84971;DHT22;75278;51.926;4.562;2024-02-15T11:59:48;15.7;95
84971;DHT22;75278;51.926;4.562;2024-02-15T12:01:47;15.9;94
84971;DHT22;75278;51.926;4.562;2024-02-15T12:03:51;16.0;95
84971;DHT22;75278;51.926;4.562;2024-02-15T12:05:50;16.1;93
84971;DHT22;75278;51.926;4.562;2024-02-15T12:07:47;16.1;94
84971;DHT22;75278;51.926;4.562;2024-02-15T12:09:47;16.2;94
84971;DHT22;75278;51.926;4.562;2024-02-15T12:11:57;16.2;94
84971;DHT22;75278;51.926;4.562;2024-02-15T12:13:49;16.3;93
84971;DHT22;75278;51.926;4.562;2024-02-15T12:15:56;16.3;92
84971;DHT22;75278;51.926;4.562;2024-02-15T12:17:47;16.2;91
84971;DHT22;75278;51.926;4.562;2024-02-15T12:19:48;16.3;92
84971;DHT22;75278;51.926;4.562;2024-02-15T12:21:47;16.3;93
84971;DHT22;75278;51.926;4.562;2024-02-15T12:23:47;16.3;92
84971;DHT22;75278;51.926;4.562;2024-02-15T12:25:51;16.4;92
84971;DHT22;75278;51.926;4.562;2024-02-15T12:27:52;16.5;91
84971;DHT22;75278;51.926;4.562;2024-02-15T12:29:52;16.5;89
84971;DHT22;75278;51.926;4.562;2024-02-15T12:31:50;16.5;91
84971;DHT22;75278;51.926;4.562;2024-02-15T12:35:47;16.6;89
84971;DHT22;75278;51.926;4.562;2024-02-15T12:37:48;16.6;91
84971;DHT22;75278;51.926;4.562;2024-02-15T12:39:48;16.5;90
84971;DHT22;75278;51.926;4.562;2024-02-15T12:41:48;16.4;90
84971;DHT22;75278;51.926;4.562;2024-02-15T12:43:51;16.3;91
84971;DHT22;75278;51.926;4.562;2024-02-15T12:45:47;16.3;91
84971;DHT22;75278;51.926;4.562;2024-02-15T12:47:48;16.3;90
84971;DHT22;75278;51.926;4.562;2024-02-15T12:49:48;16.3;90
84971;DHT22;75278;51.926;4.562;2024-02-15T12:51:49;16.4;90
84971;DHT22;75278;51.926;4.562;2024-02-15T12:53:47;16.5;90
84971;DHT22;75278;51.926;4.562;2024-02-15T12:55:52;16.6;90
84971;DHT22;75278;51.926;4.562;2024-02-15T12:57:48;16.7;90
84971;DHT22;75278;51.926;4.562;2024-02-15T12:59:47;16.6;88
84971;DHT22;75278;51.926;4.562;2024-02-15T13:01:47;16.7;89
84971;DHT22;75278;51.926;4.562;2024-02-15T13:03:47;16.7;88
84971;DHT22;75278;51.926;4.562;2024-02-15T13:05:47;16.7;87
84971;DHT22;75278;51.926;4.562;2024-02-15T13:07:48;16.7;88
84971;DHT22;75278;51.926;4.562;2024-02-15T13:09:47;16.7;88
84971;DHT22;75278;51.926;4.562;2024-02-15T13:11:47;16.7;87
84971;DHT22;75278;51.926;4.562;2024-02-15T13:13:47;16.8;86
84971;DHT22;75278;51.926;4.562;2024-02-15T13:15:47;16.8;85
84971;DHT22;75278;51.926;4.562;2024-02-15T13:17:48;16.7;87
84971;DHT22;75278;51.926;4.562;2024-02-15T13:19:51;16.7;88
84971;DHT22;75278;51.926;4.562;2024-02-15T13:21:47;16.7;88
84971;DHT22;75278;51.926;4.562;2024-02-15T13:23:48;16.7;89
84971;DHT22;75278;51.926;4.562;2024-02-15T13:25:48;16.7;87
84971;DHT22;75278;51.926;4.562;2024-02-15T13:27:47;16.7;88
84971;DHT22;75278;51.926;4.562;2024-02-15T13:29:47;16.6;89
84971;DHT22;75278;51.926;4.562;2024-02-15T13:31:47;16.7;89
84971;DHT22;75278;51.926;4.562;2024-02-15T13:33:48;16.7;86
84971;DHT22;75278;51.926;4.562;2024-02-15T13:35:47;16.8;87
84971;DHT22;75278;51.926;4.562;2024-02-15T13:35:59;16.8;87